Time;durP1;ratioP1;P1;durP2;ratioP2;P2;SDS_P1;SDS_P2;PMS_P1;PMS_P2;Temp;Humidity;BMP_temperature;BMP_pressure;BME280_temperature;BME280_humidity;BME280_pressure;Samples;Min_cycle;Max_cycle;Signal;HPM_P1;HPM_P2
2023/12/30 00:04:30;;;;;;;70.43;27.60;;;0.40;99.90;;;-1.71;100.00;100224.16;10337027;28;98180;-90
2023/12/30 00:09:34;;;;;;;58.23;23.87;;;0.40;99.90;;;-1.71;100.00;100212.88;10332032;28;97238;-89
2023/12/30 00:14:37;;;;;;;71.70;28.33;;;0.40;99.90;;;-1.68;100.00;100217.91;10319627;28;96705;-88
2023/12/30 00:19:44;;;;;;;66.03;25.17;;;0.40;99.90;;;-1.71;100.00;100207.69;10329345;28;98158;-89
2023/12/30 00:24:48;;;;;;;54.47;21.60;;;0.40;99.90;;;-1.73;100.00;100212.16;10331155;28;97118;-89
2023/12/30 00:29:52;;;;;;;67.63;26.23;;;0.40;99.90;;;-1.70;100.00;100218.00;10332678;28;97549;-90
2023/12/30 00:34:55;;;;;;;51.87;20.53;;;0.40;99.90;;;-1.70;100.00;100219.78;10325849;28;96549;-89
2023/12/30 00:39:58;;;;;;;51.03;18.63;;;0.30;99.90;;;-1.71;100.00;100224.16;10329459;28;97684;-90
2023/12/30 00:45:04;;;;;;;53.40;18.97;;;0.40;99.90;;;-1.72;100.00;100221.63;10336032;28;96670;-89
2023/12/30 00:50:08;;;;;;;43.67;18.83;;;0.40;99.90;;;-1.69;100.00;100226.66;10326280;28;96900;-90
2023/12/30 00:55:11;;;;;;;35.83;15.07;;;0.30;99.90;;;-1.75;100.00;100233.06;10327230;28;96721;-89
2023/12/30 01:00:15;;;;;;;30.77;13.40;;;0.30;99.90;;;-1.73;100.00;100227.78;10321408;28;98135;-89
2023/12/30 01:05:19;;;;;;;25.57;12.50;;;0.30;99.90;;;-1.73;100.00;100222.56;10329499;28;97913;-89
2023/12/30 01:10:23;;;;;;;31.13;13.70;;;0.40;99.90;;;-1.69;100.00;100229.25;10330667;28;96528;-89
2023/12/30 01:15:27;;;;;;;41.57;15.90;;;0.30;99.90;;;-1.73;100.00;100231.22;10331770;28;97601;-89
2023/12/30 01:20:31;;;;;;;40.10;16.83;;;0.30;99.90;;;-1.76;100.00;100225.34;10328027;28;97226;-89
2023/12/30 01:25:37;;;;;;;35.13;14.43;;;0.30;99.90;;;-1.76;100.00;100233.16;10319202;28;96660;-89
2023/12/30 01:30:42;;;;;;;34.77;14.13;;;0.30;99.90;;;-1.79;100.00;100222.94;10336876;28;97296;-89
2023/12/30 01:35:45;;;;;;;26.93;12.67;;;0.20;99.90;;;-1.78;100.00;100222.00;10332743;28;96755;-89
2023/12/30 01:40:48;;;;;;;37.73;15.00;;;0.20;99.90;;;-1.87;100.00;100207.72;10333445;28;96707;-89
2023/12/30 01:45:55;;;;;;;37.37;15.67;;;0.20;99.90;;;-1.82;100.00;100215.28;10333672;28;98127;-87
2023/12/30 01:51:02;;;;;;;37.73;16.50;;;0.20;99.90;;;-1.82;100.00;100218.72;10336975;28;96883;-87
2023/12/30 01:56:06;;;;;;;49.63;18.37;;;0.20;99.90;;;-1.84;100.00;100204.13;10340822;28;97068;-87
2023/12/30 02:01:11;;;;;;;61.73;23.73;;;0.20;99.90;;;-1.80;100.00;100208.19;10339231;28;96920;-87
2023/12/30 02:06:14;;;;;;;63.73;22.50;;;0.30;99.90;;;-1.76;100.00;100215.75;10326021;28;96906;-86
2023/12/30 02:11:18;;;;;;;87.33;25.87;;;0.30;99.90;;;-1.73;100.00;100207.78;10338044;28;96864;-88
2023/12/30 02:16:21;;;;;;;86.80;24.83;;;0.30;99.90;;;-1.66;100.00;100205.66;10337953;28;98188;-88
2023/12/30 02:21:25;;;;;;;73.23;24.70;;;0.40;99.90;;;-1.64;100.00;100209.00;10329332;28;96640;-88
2023/12/30 02:26:30;;;;;;;112.00;24.67;;;0.40;99.90;;;-1.64;100.00;100195.97;10319545;28;97451;-89
2023/12/30 02:31:45;;;;;;;112.90;26.23;;;0.40;99.90;;;-1.59;100.00;100206.97;10331669;28;97156;-89
2023/12/30 02:36:49;;;;;;;111.57;27.50;;;0.40;99.90;;;-1.60;100.00;100191.41;10330971;28;96639;-92
2023/12/30 02:41:53;;;;;;;107.33;27.27;;;0.40;99.90;;;-1.54;100.00;100199.72;10332687;28;96675;-90
2023/12/30 02:46:56;;;;;;;86.97;25.47;;;0.50;99.90;;;-1.52;100.00;100190.03;10325989;28;96654;-90
2023/12/30 02:52:00;;;;;;;85.67;24.37;;;0.50;99.90;;;-1.53;100.00;100184.91;10332771;28;96574;-89
2023/12/30 02:57:04;;;;;;;97.67;26.03;;;0.60;99.90;;;-1.44;100.00;100197.38;10338335;28;96665;-89
2023/12/30 03:02:08;;;;;;;122.33;28.33;;;0.60;99.90;;;-1.39;100.00;100177.94;10336981;28;96719;-90
2023/12/30 03:07:11;;;;;;;100.80;24.17;;;0.60;99.90;;;-1.35;100.00;100184.66;10328113;28;97106;-90
2023/12/30 03:12:15;;;;;;;118.07;25.67;;;0.70;99.90;;;-1.30;100.00;100186.16;10341313;28;97184;-90
2023/12/30 03:17:19;;;;;;;114.23;26.77;;;0.80;99.90;;;-1.25;100.00;100186.72;10328708;28;98741;-89
2023/12/30 03:22:23;;;;;;;132.17;33.47;;;0.80;99.90;;;-1.23;100.00;100192.66;10334333;28;96669;-89
2023/12/30 03:27:26;;;;;;;105.60;28.50;;;0.90;99.90;;;-1.17;100.00;100194.91;10333201;28;96607;-89
2023/12/30 03:32:30;;;;;;;119.33;26.40;;;0.90;99.90;;;-1.15;100.00;100190.41;10324762;28;96983;-89
2023/12/30 03:37:34;;;;;;;86.87;23.17;;;0.90;99.90;;;-1.09;100.00;100195.25;10328717;28;96495;-90
2023/12/30 03:42:37;;;;;;;124.93;29.50;;;1.00;99.90;;;-1.08;100.00;100186.50;10324422;28;97200;-90
2023/12/30 03:47:41;;;;;;;85.30;22.53;;;1.00;99.90;;;-1.09;100.00;100177.84;10333603;28;97826;-90
2023/12/30 03:52:45;;;;;;;80.80;23.50;;;1.00;99.90;;;-1.05;100.00;100175.88;10315637;28;96653;-90
2023/12/30 03:57:48;;;;;;;124.03;25.23;;;1.00;99.90;;;-1.08;100.00;100170.84;10324400;28;97316;-90
2023/12/30 04:02:52;;;;;;;95.47;26.30;;;1.00;99.90;;;-1.10;100.00;100188.38;10328113;28;97525;-89
2023/12/30 04:07:55;;;;;;;56.13;18.07;;;1.00;99.90;;;-1.16;100.00;100178.31;10334979;28;98302;-88
2023/12/30 04:12:58;;;;;;;86.23;26.27;;;1.00;99.90;;;-1.27;100.00;100180.72;10343655;28;97668;-89
2023/12/30 04:18:02;;;;;;;86.47;27.87;;;0.90;99.90;;;-1.25;100.00;100197.13;10331781;28;97720;-90
2023/12/30 04:23:06;;;;;;;85.57;26.30;;;0.80;99.90;;;-1.27;100.00;100196.38;10324871;28;98159;-89
2023/12/30 04:28:09;;;;;;;72.47;23.40;;;0.80;99.90;;;-1.30;100.00;100186.16;10322201;28;97541;-89
2023/12/30 04:33:13;;;;;;;83.27;25.43;;;0.80;99.90;;;-1.32;100.00;100188.00;10327810;28;96654;-89
2023/12/30 04:38:18;;;;;;;86.13;26.53;;;0.70;99.90;;;-1.35;100.00;100189.03;10321393;28;96823;-90
2023/12/30 04:43:21;;;;;;;70.70;23.77;;;0.70;99.90;;;-1.41;100.00;100189.38;10333385;28;96730;-89
2023/12/30 04:48:25;;;;;;;71.40;25.77;;;0.70;99.90;;;-1.47;100.00;100206.22;10322629;28;96519;-89
2023/12/30 04:53:28;;;;;;;77.07;25.33;;;0.60;99.90;;;-1.50;100.00;100200.34;10319341;28;96683;-89
2023/12/30 04:58:31;;;;;;;73.23;25.17;;;0.60;99.90;;;-1.60;100.00;100205.28;10338413;28;97293;-88
2023/12/30 05:03:41;;;;;;;86.80;30.37;;;0.50;99.90;;;-1.62;100.00;100201.91;10324352;28;96677;-88
2023/12/30 05:08:44;;;;;;;66.87;25.53;;;0.40;99.90;;;-1.66;100.00;100205.66;10326566;28;97869;-89
2023/12/30 05:13:49;;;;;;;76.83;27.80;;;0.40;99.90;;;-1.69;100.00;100224.06;10335427;28;98379;-90
2023/12/30 05:18:53;;;;;;;73.00;28.10;;;0.30;99.90;;;-1.73;100.00;100217.38;10336914;28;96806;-88
2023/12/30 05:23:57;;;;;;;73.93;28.33;;;0.30;99.90;;;-1.76;100.00;100212.31;10325809;28;98222;-87
2023/12/30 05:29:00;;;;;;;82.93;32.23;;;0.30;99.90;;;-1.84;100.00;100207.56;10327656;28;97296;-88
2023/12/30 05:34:04;;;;;;;73.90;26.63;;;0.20;99.90;;;-1.86;100.00;100232.84;10326706;28;96824;-88
2023/12/30 05:39:08;;;;;;;67.00;24.10;;;0.20;99.90;;;-1.86;100.00;100238.03;10333852;28;96659;-88
2023/12/30 05:44:11;;;;;;;80.43;27.30;;;0.20;99.90;;;-1.79;100.00;100246.38;10319436;28;97898;-89
2023/12/30 05:49:15;;;;;;;67.63;25.30;;;0.20;99.90;;;-1.82;100.00;100241.31;10328679;28;97350;-90
2023/12/30 05:54:19;;;;;;;62.40;22.23;;;0.30;99.90;;;-1.77;100.00;100260.97;10330782;28;97148;-90
2023/12/30 05:59:22;;;;;;;75.97;26.43;;;0.20;99.90;;;-1.84;100.00;100254.44;10327396;28;96609;-90
2023/12/30 06:04:26;;;;;;;96.63;24.77;;;0.30;99.90;;;-1.88;100.00;100263.34;10329085;28;96542;-89
2023/12/30 06:09:30;;;;;;;73.20;23.97;;;0.20;99.90;;;-1.89;100.00;100275.53;10330350;28;96735;-88
2023/12/30 06:14:35;;;;;;;121.00;26.97;;;0.10;99.90;;;-1.90;100.00;100271.25;10337908;28;96813;-89
2023/12/30 06:19:38;;;;;;;86.03;25.10;;;0.10;99.90;;;-1.88;100.00;100279.81;10343029;28;96580;-92
2023/12/30 06:24:41;;;;;;;77.37;23.63;;;0.10;99.90;;;-1.90;100.00;100283.44;10339072;28;96615;-94
2023/12/30 06:29:45;;;;;;;100.33;25.23;;;0.20;99.90;;;-1.78;100.00;100298.38;10346960;28;96587;-90
2023/12/30 06:34:49;;;;;;;74.40;23.70;;;0.20;99.90;;;-1.72;100.00;100297.19;10322830;28;97770;-86
2023/12/30 06:39:52;;;;;;;73.67;24.17;;;0.30;99.90;;;-1.70;100.00;100292.72;10338722;28;97984;-86
2023/12/30 06:44:56;;;;;;;103.03;25.57;;;0.30;99.90;;;-1.65;100.00;100290.69;10335853;28;96529;-85
2023/12/30 06:49:59;;;;;;;75.87;22.43;;;0.40;99.90;;;-1.50;100.00;100312.41;10329894;28;97916;-87
2023/12/30 06:55:03;;;;;;;86.63;26.63;;;0.50;99.90;;;-1.49;100.00;100317.56;10330481;28;97017;-87
2023/12/30 07:00:23;;;;;;;73.50;21.43;;;0.60;99.90;;;-1.44;100.00;100317.28;10319187;28;97234;-87
2023/12/30 07:05:26;;;;;;;93.50;25.60;;;0.60;99.90;;;-1.39;100.00;100341.31;10331922;28;98321;-87
2023/12/30 07:10:29;;;;;;;66.50;20.80;;;0.70;99.90;;;-1.34;100.00;100334.06;10339350;28;98177;-87
2023/12/30 07:15:33;;;;;;;72.30;21.60;;;0.70;99.90;;;-1.32;100.00;100344.41;10336521;28;98581;-87
2023/12/30 07:20:36;;;;;;;104.83;23.07;;;0.70;99.90;;;-1.28;100.00;100340.72;10324662;28;98444;-89
2023/12/30 07:25:40;;;;;;;105.90;33.50;;;0.80;99.90;;;-1.25;100.00;100335.31;10327494;28;96686;-88
2023/12/30 07:30:44;;;;;;;99.03;28.83;;;0.80;99.90;;;-1.25;100.00;100353.56;10336094;28;97023;-87
2023/12/30 07:35:47;;;;;;;80.80;25.13;;;0.80;99.90;;;-1.32;100.00;100341.81;10322817;28;98331;-87
2023/12/30 07:40:50;;;;;;;78.77;27.30;;;0.80;99.90;;;-1.21;100.00;100360.28;10345434;28;98564;-88
2023/12/30 07:45:53;;;;;;;63.13;22.40;;;0.80;99.90;;;-1.15;100.00;100367.75;10321398;28;97090;-88
2023/12/30 07:50:57;;;;;;;94.70;23.87;;;0.90;99.90;;;-1.03;100.00;100376.63;10320982;28;97688;-87
2023/12/30 07:56:02;;;;;;;87.53;24.40;;;1.00;99.90;;;-0.94;100.00;100370.88;10329211;28;96688;-87
2023/12/30 08:01:06;;;;;;;86.40;24.40;;;1.10;99.90;;;-0.96;100.00;100372.72;10320192;28;96536;-87
2023/12/30 08:06:09;;;;;;;58.10;19.97;;;1.10;99.90;;;-0.86;100.00;100382.53;10322762;28;96695;-87
2023/12/30 08:11:13;;;;;;;92.33;25.70;;;1.20;99.90;;;-0.80;100.00;100378.72;10332949;28;96912;-86
2023/12/30 08:16:16;;;;;;;92.27;27.63;;;1.20;99.90;;;-0.77;100.00;100388.16;10324621;28;96637;-86
2023/12/30 08:21:19;;;;;;;73.57;23.33;;;1.30;99.90;;;-0.69;100.00;100383.31;10312974;28;97003;-86
2023/12/30 08:26:26;;;;;;;69.10;25.13;;;1.40;99.90;;;-0.66;100.00;100388.31;10321024;28;98444;-85
2023/12/30 08:31:34;;;;;;;89.23;26.20;;;1.40;99.90;;;-0.64;100.00;100378.66;10330337;28;97035;-86
2023/12/30 08:36:38;;;;;;;83.20;30.20;;;1.50;99.90;;;-0.65;100.00;100382.19;10322085;28;97795;-86
2023/12/30 08:41:41;;;;;;;81.17;31.37;;;1.50;99.90;;;-0.55;100.00;100389.34;10325403;28;96788;-87
2023/12/30 08:46:45;;;;;;;133.70;50.67;;;1.50;99.90;;;-0.48;100.00;100397.69;10329363;28;98062;-86
2023/12/30 08:51:48;;;;;;;94.77;33.13;;;1.60;99.90;;;-0.47;100.00;100401.97;10307191;28;97875;-87
2023/12/30 08:56:53;;;;;;;96.73;35.03;;;1.60;99.90;;;-0.40;100.00;100408.50;10345699;28;96742;-87
2023/12/30 09:01:57;;;;;;;90.67;30.93;;;1.70;99.90;;;-0.34;100.00;100423.78;10325675;28;96770;-86
2023/12/30 09:07:00;;;;;;;82.13;28.70;;;1.70;99.90;;;-0.29;100.00;100426.13;10331005;28;97316;-83
2023/12/30 09:12:04;;;;;;;96.13;30.10;;;1.80;99.90;;;-0.30;100.00;100414.84;10347009;28;98614;-83
2023/12/30 09:17:08;;;;;;;74.73;26.17;;;1.90;99.90;;;-0.25;100.00;100414.53;10333980;28;97930;-82
2023/12/30 09:22:12;;;;;;;78.17;28.23;;;1.90;99.90;;;-0.17;100.00;100408.88;10313173;28;97201;-83
2023/12/30 09:27:16;;;;;;;90.90;27.10;;;2.00;99.90;;;-0.03;100.00;100407.06;10305591;28;100214;-83
2023/12/30 09:32:19;;;;;;;78.50;27.83;;;2.10;99.90;;;0.12;100.00;100407.91;10337779;28;98457;-82
2023/12/30 09:37:22;;;;;;;68.73;24.90;;;2.30;99.90;;;0.35;100.00;100405.59;10313952;28;97460;-82
2023/12/30 09:42:27;;;;;;;66.57;24.60;;;2.50;99.90;;;0.44;100.00;100394.56;10319241;28;98740;-83
2023/12/30 09:47:32;;;;;;;60.90;22.77;;;2.60;99.90;;;0.54;100.00;100395.66;10300202;28;97415;-82
2023/12/30 09:52:36;;;;;;;95.40;39.10;;;2.70;99.90;;;0.70;100.00;100395.47;10357345;27;97091;-83
2023/12/30 09:57:40;;;;;;;59.77;26.97;;;2.90;99.90;;;0.90;100.00;100400.25;10323379;28;98193;-83
2023/12/30 10:02:44;;;;;;;41.47;20.73;;;3.00;99.90;;;1.14;100.00;100389.94;10326815;28;97432;-82
2023/12/30 10:07:47;;;;;;;49.70;24.17;;;3.30;99.90;;;1.27;100.00;100375.06;10326486;28;96723;-82
2023/12/30 10:12:51;;;;;;;50.00;23.10;;;3.50;99.90;;;1.43;100.00;100374.00;10320728;28;96683;-81
2023/12/30 10:17:55;;;;;;;45.97;21.93;;;3.60;99.90;;;1.52;100.00;100365.53;10322804;28;97379;-82
2023/12/30 10:22:58;;;;;;;55.10;26.13;;;3.70;99.90;;;1.60;100.00;100365.84;10331465;28;96611;-81
2023/12/30 10:28:04;;;;;;;59.03;24.83;;;3.80;99.90;;;1.70;100.00;100351.16;10332500;28;97395;-82
2023/12/30 10:33:12;;;;;;;61.07;27.60;;;3.90;99.90;;;1.79;100.00;100366.22;10328549;28;96527;-81
2023/12/30 10:38:17;;;;;;;54.20;23.73;;;3.90;99.90;;;1.83;100.00;100351.97;10324431;28;97019;-81
2023/12/30 10:43:21;;;;;;;43.60;22.13;;;4.00;99.90;;;1.92;100.00;100347.00;10327606;28;97190;-84
2023/12/30 10:48:32;;;;;;;56.93;23.70;;;4.10;99.90;;;2.03;100.00;100350.53;10319330;28;98179;-84
2023/12/30 10:53:44;;;;;;;52.25;24.40;;;4.20;99.90;;;2.05;100.00;100347.84;10317027;28;97523;-89
2023/12/30 10:58:52;;;;;;;47.30;20.57;;;4.20;99.90;;;2.08;100.00;100343.19;10302640;28;97673;-84
2023/12/30 11:03:58;;;;;;;51.57;19.70;;;4.20;99.90;;;2.08;100.00;100337.94;10322028;28;97844;-84
2023/12/30 11:09:09;;;;;;;49.13;20.70;;;4.20;99.90;;;2.14;100.00;100331.44;10335611;28;96808;-85
2023/12/30 11:14:15;;;;;;;62.47;24.37;;;4.30;99.90;;;2.15;100.00;100328.69;10337352;28;96967;-84
2023/12/30 11:19:33;;;;;;;44.67;17.27;;;4.30;99.90;;;2.26;100.00;100325.28;10341283;28;97940;-84
2023/12/30 11:24:42;;;;;;;54.50;19.47;;;4.40;99.90;;;2.29;100.00;100319.00;10362572;28;96642;-82
2023/12/30 11:29:45;;;;;;;54.77;21.43;;;4.40;99.90;;;2.29;100.00;100322.47;10347847;28;96733;-84
2023/12/30 11:34:50;;;;;;;60.13;26.73;;;4.40;99.90;;;2.41;100.00;100311.06;10344375;28;96640;-84
2023/12/30 11:39:57;;;;;;;72.50;27.83;;;4.50;99.90;;;2.54;100.00;100315.41;10357776;28;96656;-84
2023/12/30 11:45:02;;;;;;;52.30;24.27;;;4.60;99.90;;;2.62;100.00;100286.81;10340347;28;96508;-86
2023/12/30 11:50:09;;;;;;;61.27;24.27;;;4.60;99.90;;;2.77;100.00;100282.22;10315374;28;96554;-84
2023/12/30 11:55:15;;;;;;;65.90;29.20;;;4.70;99.90;;;2.97;100.00;100286.78;10338206;28;96643;-84
2023/12/30 12:00:20;;;;;;;61.27;27.77;;;4.90;99.90;;;3.13;100.00;100270.69;10335892;28;96948;-84
2023/12/30 12:05:24;;;;;;;54.53;26.10;;;5.10;99.90;;;3.22;100.00;100262.91;10334048;28;96918;-84
2023/12/30 12:10:27;;;;;;;49.40;24.40;;;5.20;99.90;;;3.28;100.00;100263.41;10335651;28;98062;-84
2023/12/30 12:15:31;;;;;;;62.93;27.20;;;5.30;99.90;;;3.33;100.00;100267.34;10331682;28;97198;-84
2023/12/30 12:20:38;;;;;;;57.27;27.10;;;5.40;99.90;;;3.45;100.00;100276.91;10331736;28;97177;-86
2023/12/30 12:25:44;;;;;;;53.70;28.87;;;5.40;99.90;;;3.49;100.00;100280.97;10335662;28;96678;-87
2023/12/30 12:30:48;;;;;;;61.53;30.17;;;5.50;99.90;;;3.62;100.00;100274.75;10334207;28;96859;-89
2023/12/30 12:35:51;;;;;;;52.23;27.20;;;5.60;99.90;;;3.75;100.00;100278.06;10332521;28;97731;-89
2023/12/30 12:40:54;;;;;;;47.23;23.60;;;5.70;99.90;;;3.89;100.00;100259.38;10343684;28;96956;-88
2023/12/30 12:45:58;;;;;;;12.10;6.13;;;5.80;99.90;;;4.66;100.00;100251.28;10334249;28;96701;-88
2023/12/30 12:51:02;;;;;;;19.43;8.87;;;6.20;99.90;;;5.73;100.00;100251.75;10319509;28;97900;-90
2023/12/30 12:56:05;;;;;;;12.50;6.43;;;7.30;99.90;;;6.47;100.00;100251.28;10334723;28;96619;-90
2023/12/30 13:01:09;;;;;;;4.87;2.60;;;8.10;99.90;;;7.20;100.00;100241.84;10335900;28;96478;-90
2023/12/30 13:06:12;;;;;;;4.27;2.10;;;8.80;99.90;;;7.91;100.00;100246.44;10340431;28;97235;-90
2023/12/30 13:11:25;;;;;;;4.93;2.10;;;9.50;99.90;;;8.37;100.00;100247.25;10336836;28;96659;-90
2023/12/30 13:16:29;;;;;;;4.00;2.13;;;10.00;99.90;;;8.76;100.00;100235.34;10337455;28;97661;-90
2023/12/30 13:21:33;;;;;;;4.90;2.40;;;10.50;99.90;;;9.19;100.00;100243.38;10335873;28;96548;-88
2023/12/30 13:26:37;;;;;;;5.10;2.30;;;10.80;99.90;;;9.45;94.14;100240.66;10358017;28;97065;-90
2023/12/30 13:31:43;;;;;;;7.67;4.97;;;11.10;99.90;;;9.60;89.68;100250.53;10344090;28;97895;-91
2023/12/30 13:36:56;;;;;;;7.53;4.60;;;11.30;99.90;;;9.67;88.81;100242.75;10331999;28;96615;-92
2023/12/30 13:42:04;;;;;;;5.07;2.90;;;11.40;99.90;;;9.63;86.81;100254.66;10342414;28;96856;-91
2023/12/30 13:52:31;;;;;;;5.13;2.70;;;11.40;99.90;;;9.59;84.91;100250.66;10343314;28;97829;-90
2023/12/30 13:57:36;;;;;;;6.37;3.20;;;11.30;99.90;;;9.51;86.30;100261.25;10345110;28;96600;-91
2023/12/30 14:02:40;;;;;;;5.13;2.63;;;11.30;99.90;;;9.43;85.66;100266.53;10341845;28;96550;-92
2023/12/30 14:07:44;;;;;;;4.70;2.40;;;11.20;99.90;;;9.30;88.19;100261.66;10323962;28;97850;-85
2023/12/30 14:12:49;;;;;;;4.17;2.10;;;11.10;99.90;;;9.23;88.38;100261.44;10340786;28;97557;-87
2023/12/30 14:17:52;;;;;;;4.13;1.97;;;11.00;99.90;;;9.31;87.05;100266.81;10335703;28;97288;-86
2023/12/30 14:22:58;;;;;;;4.87;2.67;;;11.10;99.90;;;9.37;86.59;100268.81;10340038;28;97073;-85
2023/12/30 14:28:03;;;;;;;5.70;2.53;;;11.10;99.90;;;9.33;85.84;100256.84;10341037;28;96500;-85
2023/12/30 14:33:07;;;;;;;3.50;2.00;;;11.10;99.90;;;9.31;86.65;100263.31;10350717;28;98206;-84
2023/12/30 14:38:11;;;;;;;4.17;2.03;;;11.00;99.90;;;9.17;87.02;100261.25;10348781;28;96803;-85
2023/12/30 14:43:16;;;;;;;4.67;2.40;;;10.90;99.90;;;9.08;87.76;100261.19;10340489;28;96625;-85
2023/12/30 14:48:19;;;;;;;4.93;2.53;;;10.80;99.90;;;9.02;88.26;100269.78;10339881;28;98168;-85
2023/12/30 14:53:23;;;;;;;6.47;2.43;;;10.70;99.90;;;8.81;89.81;100262.16;10340706;28;96598;-85
2023/12/30 14:58:26;;;;;;;2.90;2.00;;;10.60;99.90;;;8.67;91.60;100272.50;10336742;28;97878;-85
2023/12/30 15:03:30;;;;;;;3.67;1.93;;;10.50;99.90;;;8.39;94.26;100287.66;10337405;28;96605;-85
2023/12/30 15:08:33;;;;;;;12.67;7.53;;;10.30;99.90;;;8.08;96.03;100298.56;10341973;28;97898;-85
2023/12/30 15:13:37;;;;;;;30.67;10.67;;;10.00;99.90;;;7.83;98.14;100300.13;10334779;28;97845;-84
2023/12/30 15:18:41;;;;;;;29.90;10.20;;;9.70;99.90;;;7.58;100.00;100298.16;10338477;28;97136;-85
2023/12/30 15:23:44;;;;;;;17.60;6.37;;;9.50;99.90;;;7.36;100.00;100294.91;10336105;28;97312;-85
2023/12/30 15:28:49;;;;;;;17.83;7.60;;;9.30;99.90;;;7.35;100.00;100297.69;10340318;28;97903;-84
2023/12/30 15:33:53;;;;;;;13.07;5.43;;;9.20;99.90;;;7.15;100.00;100303.03;10331929;28;98248;-85
2023/12/30 15:38:57;;;;;;;18.33;8.13;;;9.10;99.90;;;7.04;100.00;100303.22;10334686;28;96686;-85
2023/12/30 15:44:00;;;;;;;47.67;18.53;;;9.00;99.90;;;6.91;100.00;100306.16;10337615;28;96709;-85
2023/12/30 15:49:04;;;;;;;72.60;27.00;;;8.90;99.90;;;6.70;100.00;100318.69;10337802;28;97603;-85
2023/12/30 15:54:08;;;;;;;38.27;15.97;;;8.70;99.90;;;6.66;100.00;100317.31;10338938;28;98352;-86
2023/12/30 15:59:11;;;;;;;33.30;14.37;;;8.60;99.90;;;6.68;100.00;100302.97;10333824;28;97514;-86
2023/12/30 16:04:14;;;;;;;41.57;15.30;;;8.50;99.90;;;6.66;100.00;100306.75;10331735;28;98121;-85
2023/12/30 16:09:19;;;;;;;70.37;28.37;;;8.50;99.90;;;6.71;100.00;100305.31;10318010;28;97968;-85
2023/12/30 16:14:22;;;;;;;107.70;45.80;;;8.60;99.90;;;6.67;100.00;100317.16;10318988;28;97575;-86
2023/12/30 16:19:26;;;;;;;25.53;13.13;;;8.60;99.90;;;6.52;100.00;100318.53;10331414;28;98342;-86
2023/12/30 16:24:29;;;;;;;11.70;6.83;;;8.40;99.90;;;6.41;100.00;100326.59;10331135;28;97085;-87
2023/12/30 16:29:40;;;;;;;12.80;5.77;;;8.30;99.90;;;6.31;100.00;100326.59;10334228;28;97767;-87
2023/12/30 16:34:44;;;;;;;6.78;3.85;;;8.20;99.90;;;6.28;100.00;100328.66;10331837;28;96991;-87
2023/12/30 16:39:47;;;;;;;7.43;3.97;;;8.10;99.90;;;6.24;100.00;100321.97;10335246;28;97762;-87
2023/12/30 16:44:54;;;;;;;5.43;3.30;;;8.10;99.90;;;6.15;100.00;100321.84;10336813;28;97887;-86
2023/12/30 16:49:57;;;;;;;3.97;2.33;;;8.10;99.90;;;6.10;100.00;100324.06;10317368;28;96799;-87
2023/12/30 16:55:06;;;;;;;4.90;2.40;;;8.00;99.90;;;5.95;100.00;100330.69;10332887;28;98155;-86
2023/12/30 17:00:11;;;;;;;6.03;2.70;;;7.90;99.90;;;5.69;100.00;100337.38;10332790;28;96806;-86
2023/12/30 17:05:15;;;;;;;26.60;10.27;;;7.70;99.90;;;5.33;100.00;100339.56;10343011;28;96821;-86
2023/12/30 17:10:18;;;;;;;44.20;17.23;;;7.40;99.90;;;5.04;100.00;100342.03;10365827;28;97089;-86
2023/12/30 17:15:22;;;;;;;32.83;14.43;;;7.10;99.90;;;4.68;100.00;100341.50;10331930;28;96777;-86
2023/12/30 17:20:25;;;;;;;44.83;20.03;;;6.80;99.90;;;4.38;100.00;100354.50;10330335;28;98901;-86
2023/12/30 17:25:28;;;;;;;44.10;19.17;;;6.50;99.90;;;4.11;100.00;100360.22;10332952;28;96710;-86
2023/12/30 17:30:32;;;;;;;54.83;23.30;;;6.20;99.90;;;3.88;100.00;100352.34;10329895;28;98207;-86
2023/12/30 17:35:35;;;;;;;120.47;45.27;;;5.90;99.90;;;3.66;100.00;100361.09;10329557;28;96602;-86
2023/12/30 17:40:38;;;;;;;83.80;35.93;;;5.70;99.90;;;3.43;100.00;100367.31;10331840;28;96664;-85
2023/12/30 17:45:42;;;;;;;69.03;26.67;;;5.50;99.90;;;3.19;100.00;100370.00;10332531;28;97287;-86
2023/12/30 17:50:45;;;;;;;43.03;20.43;;;5.30;99.90;;;2.96;100.00;100379.63;10337250;28;97683;-86
2023/12/30 17:55:49;;;;;;;45.77;20.97;;;5.00;99.90;;;2.78;100.00;100381.81;10335701;28;97810;-86
2023/12/30 18:00:53;;;;;;;48.13;21.07;;;4.80;99.90;;;2.61;100.00;100395.34;10332579;28;96638;-87
2023/12/30 18:05:56;;;;;;;52.77;21.30;;;4.70;99.90;;;2.44;100.00;100407.06;10332741;28;96589;-84
2023/12/30 18:11:00;;;;;;;61.23;24.40;;;4.50;99.90;;;2.25;100.00;100396.22;10342879;28;96592;-85
2023/12/30 18:16:03;;;;;;;54.57;23.00;;;4.30;99.90;;;2.08;100.00;100413.13;10319589;28;97775;-85
2023/12/30 18:21:07;;;;;;;48.87;21.10;;;4.10;99.90;;;1.93;100.00;100403.75;10338398;28;97826;-85
2023/12/30 18:26:12;;;;;;;49.10;21.50;;;4.00;99.90;;;1.81;100.00;100401.03;10338856;28;97686;-86
2023/12/30 18:31:16;;;;;;;48.27;21.43;;;3.90;99.90;;;1.69;100.00;100388.78;10339966;28;98073;-85
2023/12/30 18:36:19;;;;;;;45.10;21.80;;;3.70;99.90;;;1.64;100.00;100392.66;10339237;28;98027;-85
2023/12/30 18:41:22;;;;;;;59.03;27.13;;;3.70;99.90;;;1.55;100.00;100397.56;10339992;28;97467;-85
2023/12/30 18:46:26;;;;;;;49.33;22.33;;;3.60;99.90;;;1.46;100.00;100400.00;10336715;28;96755;-86
2023/12/30 18:51:29;;;;;;;63.10;22.87;;;3.50;99.90;;;1.36;100.00;100398.94;10333375;28;97148;-85
2023/12/30 18:56:33;;;;;;;51.57;22.50;;;3.40;99.90;;;1.30;100.00;100402.81;10334324;28;97955;-85
2023/12/30 19:01:42;;;;;;;68.23;26.63;;;3.30;99.90;;;1.23;100.00;100397.16;10334781;28;97036;-85
2023/12/30 19:06:45;;;;;;;65.47;25.73;;;3.30;99.90;;;1.11;100.00;100405.00;10336421;28;96707;-85
2023/12/30 19:11:48;;;;;;;103.73;36.93;;;3.20;99.90;;;1.01;100.00;100410.00;10335499;28;96945;-85
2023/12/30 19:16:52;;;;;;;64.60;27.77;;;3.10;99.90;;;0.89;100.00;100413.44;10338238;28;96799;-85
2023/12/30 19:21:56;;;;;;;52.23;23.53;;;3.00;99.90;;;0.80;100.00;100412.25;10337087;28;97767;-85
2023/12/30 19:26:59;;;;;;;61.73;25.03;;;2.90;99.90;;;0.84;100.00;100418.97;10335272;28;97984;-85
2023/12/30 19:32:03;;;;;;;60.47;27.77;;;2.90;99.90;;;0.85;100.00;100411.97;10338370;28;98269;-86
2023/12/30 19:37:06;;;;;;;58.23;26.47;;;2.90;99.90;;;0.85;100.00;100407.56;10344385;28;96602;-86
2023/12/30 19:42:10;;;;;;;56.00;25.93;;;2.90;99.90;;;0.80;100.00;100412.25;10329821;28;98138;-89
2023/12/30 19:47:13;;;;;;;45.80;21.40;;;2.90;99.90;;;0.76;100.00;100403.75;10328310;28;96681;-90
2023/12/30 19:52:16;;;;;;;51.67;25.17;;;2.80;99.90;;;0.75;100.00;100412.56;10335903;28;96802;-86
2023/12/30 19:57:20;;;;;;;54.40;24.50;;;2.80;99.90;;;0.76;100.00;100411.63;10325924;28;96624;-87
2023/12/30 20:02:24;;;;;;;76.20;34.40;;;2.80;99.90;;;0.79;100.00;100410.59;10317676;28;98350;-88
2023/12/30 20:07:27;;;;;;;74.03;33.80;;;2.80;99.90;;;0.84;100.00;100400.66;10331526;28;97996;-87
2023/12/30 20:12:30;;;;;;;59.73;27.63;;;2.80;99.90;;;0.81;100.00;100398.25;10369411;28;97317;-87
2023/12/30 20:17:35;;;;;;;50.50;22.73;;;2.80;99.90;;;0.77;100.00;100383.66;10347446;28;97239;-86
2023/12/30 20:22:40;;;;;;;60.47;25.07;;;2.80;99.90;;;0.87;100.00;100392.59;10342139;28;96628;-87
2023/12/30 20:27:43;;;;;;;54.07;21.20;;;2.90;99.90;;;0.88;100.00;100388.22;10328850;28;96959;-90
2023/12/30 20:32:47;;;;;;;40.50;15.60;;;2.90;99.90;;;0.82;100.00;100386.84;10339092;28;96662;-89
2023/12/30 20:37:50;;;;;;;38.47;15.70;;;2.90;99.90;;;0.76;100.00;100380.22;10328770;28;96988;-92
2023/12/30 20:42:55;;;;;;;33.37;14.93;;;2.80;99.90;;;0.70;100.00;100391.09;10335601;28;97593;-92